sensor_id;sensor_type;location;lat;lon;timestamp;temperature;humidity
4081;DHT22;2055;50.074;8.436;2023-04-24T00:00:21;10.50;99.90
4081;DHT22;2055;50.074;8.436;2023-04-24T00:02:46;10.50;99.90
4081;DHT22;2055;50.074;8.436;2023-04-24T00:05:16;10.50;99.90
4081;DHT22;2055;50.074;8.436;2023-04-24T00:07:44;10.60;99.90
4081;DHT22;2055;50.074;8.436;2023-04-24T00:10:10;10.50;99.90
4081;DHT22;2055;50.074;8.436;2023-04-24T00:12:37;10.50;99.90
4081;DHT22;2055;50.074;8.436;2023-04-24T00:15:02;10.60;99.90
4081;DHT22;2055;50.074;8.436;2023-04-24T00:17:28;10.60;99.90
4081;DHT22;2055;50.074;8.436;2023-04-24T00:19:54;10.60;99.90
4081;DHT22;2055;50.074;8.436;2023-04-24T00:22:24;10.60;99.90
4081;DHT22;2055;50.074;8.436;2023-04-24T00:24:50;10.60;99.90
4081;DHT22;2055;50.074;8.436;2023-04-24T00:27:15;10.60;99.90
4081;DHT22;2055;50.074;8.436;2023-04-24T00:29:41;10.60;99.90
4081;DHT22;2055;50.074;8.436;2023-04-24T00:32:06;10.60;99.90
4081;DHT22;2055;50.074;8.436;2023-04-24T00:34:32;10.70;99.90
4081;DHT22;2055;50.074;8.436;2023-04-24T00:36:57;10.70;99.90
4081;DHT22;2055;50.074;8.436;2023-04-24T00:39:23;10.70;99.90
4081;DHT22;2055;50.074;8.436;2023-04-24T00:41:49;10.70;99.90
4081;DHT22;2055;50.074;8.436;2023-04-24T00:44:16;10.70;99.90
4081;DHT22;2055;50.074;8.436;2023-04-24T00:46:42;10.70;99.90
4081;DHT22;2055;50.074;8.436;2023-04-24T00:49:08;10.70;99.90
4081;DHT22;2055;50.074;8.436;2023-04-24T00:51:33;10.60;99.90
4081;DHT22;2055;50.074;8.436;2023-04-24T00:54:00;10.70;99.90
4081;DHT22;2055;50.074;8.436;2023-04-24T00:56:26;10.60;99.90
4081;DHT22;2055;50.074;8.436;2023-04-24T00:58:52;10.60;99.90
4081;DHT22;2055;50.074;8.436;2023-04-24T01:01:21;10.60;99.90
4081;DHT22;2055;50.074;8.436;2023-04-24T01:03:47;10.50;99.90
4081;DHT22;2055;50.074;8.436;2023-04-24T01:06:14;10.50;99.90
4081;DHT22;2055;50.074;8.436;2023-04-24T01:08:41;10.40;99.90
4081;DHT22;2055;50.074;8.436;2023-04-24T01:11:07;10.40;99.90
4081;DHT22;2055;50.074;8.436;2023-04-24T01:13:33;10.40;99.90
4081;DHT22;2055;50.074;8.436;2023-04-24T01:15:59;10.40;99.90
4081;DHT22;2055;50.074;8.436;2023-04-24T01:18:25;10.40;99.90
4081;DHT22;2055;50.074;8.436;2023-04-24T01:20:53;10.40;99.90
4081;DHT22;2055;50.074;8.436;2023-04-24T01:23:22;10.30;99.90
4081;DHT22;2055;50.074;8.436;2023-04-24T01:25:49;10.30;99.90
4081;DHT22;2055;50.074;8.436;2023-04-24T01:28:14;10.30;99.90
4081;DHT22;2055;50.074;8.436;2023-04-24T01:30:40;10.30;99.90
4081;DHT22;2055;50.074;8.436;2023-04-24T01:33:06;10.30;99.90
4081;DHT22;2055;50.074;8.436;2023-04-24T01:35:32;10.30;99.90
4081;DHT22;2055;50.074;8.436;2023-04-24T01:37:58;10.30;99.90
4081;DHT22;2055;50.074;8.436;2023-04-24T01:40:23;10.30;99.90
4081;DHT22;2055;50.074;8.436;2023-04-24T01:42:49;10.30;99.90
4081;DHT22;2055;50.074;8.436;2023-04-24T01:45:15;10.30;99.90
4081;DHT22;2055;50.074;8.436;2023-04-24T01:47:41;10.30;99.90
4081;DHT22;2055;50.074;8.436;2023-04-24T01:50:07;10.30;99.90
4081;DHT22;2055;50.074;8.436;2023-04-24T01:52:33;10.30;99.90
4081;DHT22;2055;50.074;8.436;2023-04-24T01:55:00;10.30;99.90
4081;DHT22;2055;50.074;8.436;2023-04-24T01:57:26;10.30;99.90
4081;DHT22;2055;50.074;8.436;2023-04-24T01:59:51;10.40;99.90
4081;DHT22;2055;50.074;8.436;2023-04-24T02:02:17;10.40;99.90
4081;DHT22;2055;50.074;8.436;2023-04-24T02:04:43;10.40;99.90
4081;DHT22;2055;50.074;8.436;2023-04-24T02:07:08;10.40;99.90
4081;DHT22;2055;50.074;8.436;2023-04-24T02:09:34;10.40;99.90
4081;DHT22;2055;50.074;8.436;2023-04-24T02:11:59;10.50;99.90
4081;DHT22;2055;50.074;8.436;2023-04-24T02:14:26;10.50;99.90
4081;DHT22;2055;50.074;8.436;2023-04-24T02:16:51;10.50;99.90
4081;DHT22;2055;50.074;8.436;2023-04-24T02:19:17;10.50;99.90
4081;DHT22;2055;50.074;8.436;2023-04-24T02:21:42;10.50;99.90
4081;DHT22;2055;50.074;8.436;2023-04-24T02:24:08;10.50;99.90
4081;DHT22;2055;50.074;8.436;2023-04-24T02:26:33;10.60;99.90
4081;DHT22;2055;50.074;8.436;2023-04-24T02:28:59;10.50;99.90
4081;DHT22;2055;50.074;8.436;2023-04-24T02:31:24;10.50;99.90
4081;DHT22;2055;50.074;8.436;2023-04-24T02:33:50;10.50;99.90
4081;DHT22;2055;50.074;8.436;2023-04-24T02:36:16;10.60;99.90
4081;DHT22;2055;50.074;8.436;2023-04-24T02:38:41;10.60;99.90
4081;DHT22;2055;50.074;8.436;2023-04-24T02:41:07;10.60;99.90
4081;DHT22;2055;50.074;8.436;2023-04-24T02:43:33;10.50;99.90
4081;DHT22;2055;50.074;8.436;2023-04-24T02:45:59;10.60;99.90
4081;DHT22;2055;50.074;8.436;2023-04-24T02:48:24;10.60;99.90
4081;DHT22;2055;50.074;8.436;2023-04-24T02:50:50;10.50;99.90
4081;DHT22;2055;50.074;8.436;2023-04-24T02:53:16;10.60;99.90
4081;DHT22;2055;50.074;8.436;2023-04-24T02:55:41;10.60;99.90
4081;DHT22;2055;50.074;8.436;2023-04-24T02:58:07;10.60;99.90
4081;DHT22;2055;50.074;8.436;2023-04-24T03:00:33;10.60;99.90
4081;DHT22;2055;50.074;8.436;2023-04-24T03:02:58;10.60;99.90
4081;DHT22;2055;50.074;8.436;2023-04-24T03:05:24;10.60;99.90
4081;DHT22;2055;50.074;8.436;2023-04-24T03:07:49;10.60;99.90
4081;DHT22;2055;50.074;8.436;2023-04-24T03:10:15;10.60;99.90
4081;DHT22;2055;50.074;8.436;2023-04-24T03:12:40;10.60;99.90
4081;DHT22;2055;50.074;8.436;2023-04-24T03:15:06;10.60;99.90
4081;DHT22;2055;50.074;8.436;2023-04-24T03:17:32;10.60;99.90
4081;DHT22;2055;50.074;8.436;2023-04-24T03:19:58;10.60;99.90
4081;DHT22;2055;50.074;8.436;2023-04-24T03:22:23;10.60;99.90
4081;DHT22;2055;50.074;8.436;2023-04-24T03:24:49;10.50;99.90
4081;DHT22;2055;50.074;8.436;2023-04-24T03:27:14;10.50;99.90
4081;DHT22;2055;50.074;8.436;2023-04-24T03:29:40;10.50;99.90
4081;DHT22;2055;50.074;8.436;2023-04-24T03:32:05;10.50;99.90
4081;DHT22;2055;50.074;8.436;2023-04-24T03:34:31;10.40;99.90
4081;DHT22;2055;50.074;8.436;2023-04-24T03:36:56;10.50;99.90
4081;DHT22;2055;50.074;8.436;2023-04-24T03:39:22;10.50;99.90
4081;DHT22;2055;50.074;8.436;2023-04-24T03:41:47;10.40;99.90
4081;DHT22;2055;50.074;8.436;2023-04-24T03:44:13;10.40;99.90
4081;DHT22;2055;50.074;8.436;2023-04-24T03:46:38;10.50;99.90
4081;DHT22;2055;50.074;8.436;2023-04-24T03:49:04;10.50;99.90
4081;DHT22;2055;50.074;8.436;2023-04-24T03:51:29;10.50;99.90
4081;DHT22;2055;50.074;8.436;2023-04-24T03:53:56;10.60;99.90
4081;DHT22;2055;50.074;8.436;2023-04-24T03:56:22;10.60;99.90
4081;DHT22;2055;50.074;8.436;2023-04-24T03:58:48;10.60;99.90
4081;DHT22;2055;50.074;8.436;2023-04-24T04:01:13;10.60;99.90
4081;DHT22;2055;50.074;8.436;2023-04-24T04:03:41;10.60;99.90
4081;DHT22;2055;50.074;8.436;2023-04-24T04:06:06;10.60;99.90
4081;DHT22;2055;50.074;8.436;2023-04-24T04:08:32;10.50;99.90
4081;DHT22;2055;50.074;8.436;2023-04-24T04:10:57;10.50;99.90
4081;DHT22;2055;50.074;8.436;2023-04-24T04:13:23;10.30;99.90
4081;DHT22;2055;50.074;8.436;2023-04-24T04:15:48;10.20;99.90
4081;DHT22;2055;50.074;8.436;2023-04-24T04:18:14;10.10;99.90
4081;DHT22;2055;50.074;8.436;2023-04-24T04:20:40;10.00;99.90
4081;DHT22;2055;50.074;8.436;2023-04-24T04:23:05;10.00;99.90
4081;DHT22;2055;50.074;8.436;2023-04-24T04:25:31;9.90;99.90
4081;DHT22;2055;50.074;8.436;2023-04-24T04:27:56;9.80;99.90
4081;DHT22;2055;50.074;8.436;2023-04-24T04:30:24;9.70;99.90
4081;DHT22;2055;50.074;8.436;2023-04-24T04:32:51;9.60;99.90
4081;DHT22;2055;50.074;8.436;2023-04-24T04:35:16;9.50;99.90
4081;DHT22;2055;50.074;8.436;2023-04-24T04:37:42;9.40;99.90
4081;DHT22;2055;50.074;8.436;2023-04-24T04:40:08;9.30;99.90
4081;DHT22;2055;50.074;8.436;2023-04-24T04:42:36;9.30;99.90
4081;DHT22;2055;50.074;8.436;2023-04-24T04:45:06;9.20;99.90
4081;DHT22;2055;50.074;8.436;2023-04-24T04:47:34;9.10;99.90
4081;DHT22;2055;50.074;8.436;2023-04-24T04:50:00;9.00;99.90
4081;DHT22;2055;50.074;8.436;2023-04-24T04:52:25;9.00;99.90
4081;DHT22;2055;50.074;8.436;2023-04-24T04:54:52;9.00;99.90
4081;DHT22;2055;50.074;8.436;2023-04-24T04:57:17;9.00;99.90
4081;DHT22;2055;50.074;8.436;2023-04-24T04:59:43;9.00;99.90
4081;DHT22;2055;50.074;8.436;2023-04-24T05:02:09;9.00;99.90
4081;DHT22;2055;50.074;8.436;2023-04-24T05:04:34;9.10;99.90
4081;DHT22;2055;50.074;8.436;2023-04-24T05:07:00;9.20;99.90
4081;DHT22;2055;50.074;8.436;2023-04-24T05:09:25;9.20;99.90
4081;DHT22;2055;50.074;8.436;2023-04-24T05:11:52;9.20;99.90
4081;DHT22;2055;50.074;8.436;2023-04-24T05:14:18;9.20;99.90
4081;DHT22;2055;50.074;8.436;2023-04-24T05:16:44;9.20;99.90
4081;DHT22;2055;50.074;8.436;2023-04-24T05:19:10;9.20;99.90
4081;DHT22;2055;50.074;8.436;2023-04-24T05:21:37;9.20;99.90
4081;DHT22;2055;50.074;8.436;2023-04-24T05:24:02;9.20;99.90
4081;DHT22;2055;50.074;8.436;2023-04-24T05:26:29;9.10;99.90
4081;DHT22;2055;50.074;8.436;2023-04-24T05:28:54;9.10;99.90
4081;DHT22;2055;50.074;8.436;2023-04-24T05:31:20;9.20;99.90
4081;DHT22;2055;50.074;8.436;2023-04-24T05:33:46;9.20;99.90
4081;DHT22;2055;50.074;8.436;2023-04-24T05:36:11;9.30;99.90
4081;DHT22;2055;50.074;8.436;2023-04-24T05:38:37;9.40;99.90
4081;DHT22;2055;50.074;8.436;2023-04-24T05:41:02;9.50;99.90
4081;DHT22;2055;50.074;8.436;2023-04-24T05:43:28;9.50;99.90
4081;DHT22;2055;50.074;8.436;2023-04-24T05:45:53;9.50;99.90
4081;DHT22;2055;50.074;8.436;2023-04-24T05:48:19;9.50;99.90
4081;DHT22;2055;50.074;8.436;2023-04-24T05:50:45;9.50;99.90
4081;DHT22;2055;50.074;8.436;2023-04-24T05:53:10;9.50;99.90
4081;DHT22;2055;50.074;8.436;2023-04-24T05:55:36;9.50;99.90
4081;DHT22;2055;50.074;8.436;2023-04-24T05:58:02;9.50;99.90
4081;DHT22;2055;50.074;8.436;2023-04-24T06:00:27;9.40;99.90
4081;DHT22;2055;50.074;8.436;2023-04-24T06:02:53;9.30;99.90
4081;DHT22;2055;50.074;8.436;2023-04-24T06:05:19;9.20;99.90
4081;DHT22;2055;50.074;8.436;2023-04-24T06:07:45;9.10;99.90
4081;DHT22;2055;50.074;8.436;2023-04-24T06:10:10;9.10;99.90
4081;DHT22;2055;50.074;8.436;2023-04-24T06:12:36;9.20;99.90
4081;DHT22;2055;50.074;8.436;2023-04-24T06:15:02;9.30;99.90
4081;DHT22;2055;50.074;8.436;2023-04-24T06:17:27;9.40;99.90
4081;DHT22;2055;50.074;8.436;2023-04-24T06:19:53;9.50;99.90
4081;DHT22;2055;50.074;8.436;2023-04-24T06:22:19;9.40;99.90
4081;DHT22;2055;50.074;8.436;2023-04-24T06:24:44;9.50;99.90
4081;DHT22;2055;50.074;8.436;2023-04-24T06:27:10;9.50;99.90
4081;DHT22;2055;50.074;8.436;2023-04-24T06:29:36;9.40;99.90
4081;DHT22;2055;50.074;8.436;2023-04-24T06:32:02;9.40;99.90
4081;DHT22;2055;50.074;8.436;2023-04-24T06:34:27;9.40;99.90
4081;DHT22;2055;50.074;8.436;2023-04-24T06:36:54;9.30;99.90
4081;DHT22;2055;50.074;8.436;2023-04-24T06:39:20;9.50;99.90
4081;DHT22;2055;50.074;8.436;2023-04-24T06:41:45;9.80;99.90
4081;DHT22;2055;50.074;8.436;2023-04-24T06:44:11;10.30;99.90
4081;DHT22;2055;50.074;8.436;2023-04-24T06:46:36;10.70;99.90
4081;DHT22;2055;50.074;8.436;2023-04-24T06:49:02;10.70;99.90
4081;DHT22;2055;50.074;8.436;2023-04-24T06:51:27;10.90;99.90
4081;DHT22;2055;50.074;8.436;2023-04-24T06:53:53;10.90;99.90
4081;DHT22;2055;50.074;8.436;2023-04-24T06:56:19;11.00;99.90
4081;DHT22;2055;50.074;8.436;2023-04-24T06:58:46;11.20;99.90
4081;DHT22;2055;50.074;8.436;2023-04-24T07:01:11;11.50;99.90
4081;DHT22;2055;50.074;8.436;2023-04-24T07:03:37;11.80;99.90
4081;DHT22;2055;50.074;8.436;2023-04-24T07:06:04;12.00;99.90
4081;DHT22;2055;50.074;8.436;2023-04-24T07:08:30;11.80;99.90
4081;DHT22;2055;50.074;8.436;2023-04-24T07:10:56;11.90;99.90
4081;DHT22;2055;50.074;8.436;2023-04-24T07:13:22;11.70;99.90
4081;DHT22;2055;50.074;8.436;2023-04-24T07:15:48;11.50;99.90
4081;DHT22;2055;50.074;8.436;2023-04-24T07:18:16;11.40;99.90
4081;DHT22;2055;50.074;8.436;2023-04-24T07:20:42;11.30;99.90
4081;DHT22;2055;50.074;8.436;2023-04-24T07:23:07;11.10;99.90
4081;DHT22;2055;50.074;8.436;2023-04-24T07:25:33;11.20;99.90
4081;DHT22;2055;50.074;8.436;2023-04-24T07:27:59;11.50;99.90
4081;DHT22;2055;50.074;8.436;2023-04-24T07:30:24;11.80;99.90
4081;DHT22;2055;50.074;8.436;2023-04-24T07:32:50;11.80;99.90
4081;DHT22;2055;50.074;8.436;2023-04-24T07:35:15;11.80;99.90
4081;DHT22;2055;50.074;8.436;2023-04-24T07:37:41;11.90;99.90
4081;DHT22;2055;50.074;8.436;2023-04-24T07:40:12;11.90;99.90
4081;DHT22;2055;50.074;8.436;2023-04-24T07:42:37;12.00;99.90
4081;DHT22;2055;50.074;8.436;2023-04-24T07:45:03;12.00;99.90
4081;DHT22;2055;50.074;8.436;2023-04-24T07:47:29;12.00;99.90
4081;DHT22;2055;50.074;8.436;2023-04-24T07:49:55;12.10;99.90
4081;DHT22;2055;50.074;8.436;2023-04-24T07:52:21;12.10;99.90
4081;DHT22;2055;50.074;8.436;2023-04-24T07:54:47;12.20;99.90
4081;DHT22;2055;50.074;8.436;2023-04-24T07:57:13;12.20;99.90
4081;DHT22;2055;50.074;8.436;2023-04-24T07:59:39;12.40;99.90
4081;DHT22;2055;50.074;8.436;2023-04-24T08:02:04;12.60;99.90
4081;DHT22;2055;50.074;8.436;2023-04-24T08:04:31;12.60;99.90
4081;DHT22;2055;50.074;8.436;2023-04-24T08:06:57;12.50;99.90
4081;DHT22;2055;50.074;8.436;2023-04-24T08:09:22;12.40;99.90
4081;DHT22;2055;50.074;8.436;2023-04-24T08:11:48;12.70;99.90
4081;DHT22;2055;50.074;8.436;2023-04-24T08:14:13;13.00;99.90
4081;DHT22;2055;50.074;8.436;2023-04-24T08:16:40;13.10;99.90
4081;DHT22;2055;50.074;8.436;2023-04-24T08:19:06;13.10;99.90
4081;DHT22;2055;50.074;8.436;2023-04-24T08:21:32;13.60;99.90
4081;DHT22;2055;50.074;8.436;2023-04-24T08:23:57;13.60;99.90
4081;DHT22;2055;50.074;8.436;2023-04-24T08:26:23;13.50;99.90
4081;DHT22;2055;50.074;8.436;2023-04-24T08:28:48;13.60;99.90
4081;DHT22;2055;50.074;8.436;2023-04-24T08:31:14;13.10;99.90
4081;DHT22;2055;50.074;8.436;2023-04-24T08:33:40;12.80;99.90
4081;DHT22;2055;50.074;8.436;2023-04-24T08:36:07;12.50;99.90
4081;DHT22;2055;50.074;8.436;2023-04-24T08:38:33;12.40;99.90
4081;DHT22;2055;50.074;8.436;2023-04-24T08:41:00;12.20;99.90
4081;DHT22;2055;50.074;8.436;2023-04-24T08:43:26;12.10;99.90
4081;DHT22;2055;50.074;8.436;2023-04-24T08:45:54;11.90;99.90
4081;DHT22;2055;50.074;8.436;2023-04-24T08:48:22;11.60;99.90
4081;DHT22;2055;50.074;8.436;2023-04-24T08:50:49;11.60;99.90
4081;DHT22;2055;50.074;8.436;2023-04-24T08:53:16;11.50;99.90
4081;DHT22;2055;50.074;8.436;2023-04-24T08:55:43;11.60;99.90
4081;DHT22;2055;50.074;8.436;2023-04-24T08:58:10;11.50;99.90
4081;DHT22;2055;50.074;8.436;2023-04-24T09:00:39;11.50;99.90
4081;DHT22;2055;50.074;8.436;2023-04-24T09:03:05;11.60;99.90
4081;DHT22;2055;50.074;8.436;2023-04-24T09:05:32;11.60;99.90
4081;DHT22;2055;50.074;8.436;2023-04-24T09:07:59;11.60;99.90
4081;DHT22;2055;50.074;8.436;2023-04-24T09:10:27;11.70;99.90
4081;DHT22;2055;50.074;8.436;2023-04-24T09:12:56;11.90;99.90
4081;DHT22;2055;50.074;8.436;2023-04-24T09:15:24;11.90;99.90
4081;DHT22;2055;50.074;8.436;2023-04-24T09:17:49;11.90;99.90
4081;DHT22;2055;50.074;8.436;2023-04-24T09:20:15;11.90;99.90
4081;DHT22;2055;50.074;8.436;2023-04-24T09:22:42;11.80;99.90
4081;DHT22;2055;50.074;8.436;2023-04-24T09:25:09;11.80;99.90
4081;DHT22;2055;50.074;8.436;2023-04-24T09:27:42;11.50;99.90
4081;DHT22;2055;50.074;8.436;2023-04-24T09:30:09;11.40;99.90
4081;DHT22;2055;50.074;8.436;2023-04-24T09:32:34;11.40;99.90
4081;DHT22;2055;50.074;8.436;2023-04-24T09:35:12;11.60;99.90
4081;DHT22;2055;50.074;8.436;2023-04-24T09:37:42;11.90;99.90
4081;DHT22;2055;50.074;8.436;2023-04-24T09:42:35;12.30;99.90
4081;DHT22;2055;50.074;8.436;2023-04-24T09:45:01;12.30;99.90
4081;DHT22;2055;50.074;8.436;2023-04-24T09:47:27;12.60;99.90
4081;DHT22;2055;50.074;8.436;2023-04-24T09:49:57;13.00;99.90
4081;DHT22;2055;50.074;8.436;2023-04-24T09:52:23;12.90;99.90
4081;DHT22;2055;50.074;8.436;2023-04-24T09:54:53;12.70;99.90
4081;DHT22;2055;50.074;8.436;2023-04-24T09:57:19;12.60;99.90
4081;DHT22;2055;50.074;8.436;2023-04-24T09:59:46;12.70;99.90
4081;DHT22;2055;50.074;8.436;2023-04-24T10:02:19;12.70;99.90
4081;DHT22;2055;50.074;8.436;2023-04-24T10:04:55;12.50;99.90
4081;DHT22;2055;50.074;8.436;2023-04-24T10:07:21;12.50;99.90
4081;DHT22;2055;50.074;8.436;2023-04-24T10:09:47;12.30;99.90
4081;DHT22;2055;50.074;8.436;2023-04-24T10:12:13;11.90;99.90
4081;DHT22;2055;50.074;8.436;2023-04-24T10:14:39;11.70;99.90
4081;DHT22;2055;50.074;8.436;2023-04-24T10:17:05;11.50;99.90
4081;DHT22;2055;50.074;8.436;2023-04-24T10:19:32;11.10;99.90
4081;DHT22;2055;50.074;8.436;2023-04-24T10:21:59;10.90;99.90
4081;DHT22;2055;50.074;8.436;2023-04-24T10:24:25;10.90;99.90
4081;DHT22;2055;50.074;8.436;2023-04-24T10:26:51;10.80;99.90
4081;DHT22;2055;50.074;8.436;2023-04-24T10:29:18;10.90;99.90
4081;DHT22;2055;50.074;8.436;2023-04-24T10:31:45;11.10;99.90
4081;DHT22;2055;50.074;8.436;2023-04-24T10:34:11;11.00;99.90
4081;DHT22;2055;50.074;8.436;2023-04-24T10:36:48;11.00;99.90
4081;DHT22;2055;50.074;8.436;2023-04-24T10:39:16;11.00;99.90
4081;DHT22;2055;50.074;8.436;2023-04-24T10:41:42;10.90;99.90
4081;DHT22;2055;50.074;8.436;2023-04-24T10:44:08;11.00;99.90
4081;DHT22;2055;50.074;8.436;2023-04-24T10:46:35;11.40;99.90
4081;DHT22;2055;50.074;8.436;2023-04-24T10:49:03;11.70;99.90
4081;DHT22;2055;50.074;8.436;2023-04-24T10:51:52;11.90;99.90
4081;DHT22;2055;50.074;8.436;2023-04-24T10:54:33;12.20;99.90
4081;DHT22;2055;50.074;8.436;2023-04-24T10:59:44;13.60;99.90
4081;DHT22;2055;50.074;8.436;2023-04-24T11:02:09;14.20;99.90
4081;DHT22;2055;50.074;8.436;2023-04-24T11:04:35;13.70;99.90
4081;DHT22;2055;50.074;8.436;2023-04-24T11:07:03;13.70;99.90
4081;DHT22;2055;50.074;8.436;2023-04-24T11:09:30;13.10;99.90
4081;DHT22;2055;50.074;8.436;2023-04-24T11:12:04;13.00;99.90
4081;DHT22;2055;50.074;8.436;2023-04-24T11:17:47;13.10;99.90
4081;DHT22;2055;50.074;8.436;2023-04-24T11:20:17;13.00;99.90
4081;DHT22;2055;50.074;8.436;2023-04-24T11:22:43;12.90;99.90
4081;DHT22;2055;50.074;8.436;2023-04-24T11:25:09;12.60;99.90
4081;DHT22;2055;50.074;8.436;2023-04-24T11:27:44;12.60;99.90
4081;DHT22;2055;50.074;8.436;2023-04-24T11:30:11;13.70;99.90
4081;DHT22;2055;50.074;8.436;2023-04-24T11:35:13;14.90;99.90
4081;DHT22;2055;50.074;8.436;2023-04-24T11:37:41;14.60;99.90
4081;DHT22;2055;50.074;8.436;2023-04-24T11:40:12;15.40;99.90
4081;DHT22;2055;50.074;8.436;2023-04-24T11:42:42;15.80;99.90
4081;DHT22;2055;50.074;8.436;2023-04-24T11:45:13;15.90;99.90
4081;DHT22;2055;50.074;8.436;2023-04-24T11:47:39;16.40;99.90
4081;DHT22;2055;50.074;8.436;2023-04-24T11:50:08;15.30;99.90
4081;DHT22;2055;50.074;8.436;2023-04-24T11:52:38;14.50;99.90
4081;DHT22;2055;50.074;8.436;2023-04-24T11:55:04;13.70;99.90
4081;DHT22;2055;50.074;8.436;2023-04-24T11:57:30;13.20;99.90
4081;DHT22;2055;50.074;8.436;2023-04-24T12:00:00;12.50;99.90
4081;DHT22;2055;50.074;8.436;2023-04-24T12:02:26;11.50;99.90
4081;DHT22;2055;50.074;8.436;2023-04-24T12:04:53;10.60;99.90
4081;DHT22;2055;50.074;8.436;2023-04-24T12:07:20;10.10;99.90
4081;DHT22;2055;50.074;8.436;2023-04-24T12:10:05;10.00;99.90
4081;DHT22;2055;50.074;8.436;2023-04-24T12:12:31;10.00;99.90
4081;DHT22;2055;50.074;8.436;2023-04-24T12:14:57;10.10;99.90
4081;DHT22;2055;50.074;8.436;2023-04-24T12:17:28;10.20;99.90
4081;DHT22;2055;50.074;8.436;2023-04-24T12:20:02;10.20;99.90
4081;DHT22;2055;50.074;8.436;2023-04-24T12:22:52;10.20;99.90
4081;DHT22;2055;50.074;8.436;2023-04-24T12:25:26;10.10;99.90
4081;DHT22;2055;50.074;8.436;2023-04-24T12:27:54;10.40;99.90
4081;DHT22;2055;50.074;8.436;2023-04-24T12:30:21;10.70;99.90
4081;DHT22;2055;50.074;8.436;2023-04-24T12:32:48;11.00;99.90
4081;DHT22;2055;50.074;8.436;2023-04-24T12:35:19;11.20;99.90
4081;DHT22;2055;50.074;8.436;2023-04-24T12:37:46;11.40;99.90
4081;DHT22;2055;50.074;8.436;2023-04-24T12:40:12;11.90;99.90
4081;DHT22;2055;50.074;8.436;2023-04-24T12:42:49;12.10;99.90
4081;DHT22;2055;50.074;8.436;2023-04-24T12:45:16;12.30;99.90
4081;DHT22;2055;50.074;8.436;2023-04-24T12:47:44;12.60;99.90
4081;DHT22;2055;50.074;8.436;2023-04-24T12:50:12;13.40;99.90
4081;DHT22;2055;50.074;8.436;2023-04-24T12:52:38;14.40;99.90
4081;DHT22;2055;50.074;8.436;2023-04-24T12:55:05;15.00;99.90
4081;DHT22;2055;50.074;8.436;2023-04-24T12:57:33;14.70;99.90
4081;DHT22;2055;50.074;8.436;2023-04-24T12:59:59;14.30;99.90
4081;DHT22;2055;50.074;8.436;2023-04-24T13:02:27;13.80;99.90
4081;DHT22;2055;50.074;8.436;2023-04-24T13:04:52;13.40;99.90
4081;DHT22;2055;50.074;8.436;2023-04-24T13:07:19;13.40;99.90
4081;DHT22;2055;50.074;8.436;2023-04-24T13:09:45;14.70;99.90
4081;DHT22;2055;50.074;8.436;2023-04-24T13:12:13;15.00;99.90
4081;DHT22;2055;50.074;8.436;2023-04-24T13:14:38;15.00;99.90
4081;DHT22;2055;50.074;8.436;2023-04-24T13:17:06;14.30;99.90
4081;DHT22;2055;50.074;8.436;2023-04-24T13:19:36;13.50;99.90
4081;DHT22;2055;50.074;8.436;2023-04-24T13:22:03;13.10;99.90
4081;DHT22;2055;50.074;8.436;2023-04-24T13:24:28;12.90;99.90
4081;DHT22;2055;50.074;8.436;2023-04-24T13:26:54;12.20;99.90
4081;DHT22;2055;50.074;8.436;2023-04-24T13:29:22;12.00;99.90
4081;DHT22;2055;50.074;8.436;2023-04-24T13:31:50;12.10;99.90
4081;DHT22;2055;50.074;8.436;2023-04-24T13:34:16;12.40;99.90
4081;DHT22;2055;50.074;8.436;2023-04-24T13:36:42;12.40;99.90
4081;DHT22;2055;50.074;8.436;2023-04-24T13:39:07;12.30;99.90
4081;DHT22;2055;50.074;8.436;2023-04-24T13:41:33;12.30;99.90
4081;DHT22;2055;50.074;8.436;2023-04-24T13:43:59;12.10;99.90
4081;DHT22;2055;50.074;8.436;2023-04-24T13:46:25;12.00;99.90
4081;DHT22;2055;50.074;8.436;2023-04-24T13:48:51;11.90;99.90
4081;DHT22;2055;50.074;8.436;2023-04-24T13:51:16;12.20;99.90
4081;DHT22;2055;50.074;8.436;2023-04-24T13:53:42;13.60;99.90
4081;DHT22;2055;50.074;8.436;2023-04-24T13:56:07;14.70;99.90
4081;DHT22;2055;50.074;8.436;2023-04-24T13:58:34;15.30;99.90
4081;DHT22;2055;50.074;8.436;2023-04-24T14:01:01;16.50;99.90
4081;DHT22;2055;50.074;8.436;2023-04-24T14:03:27;16.60;99.90
4081;DHT22;2055;50.074;8.436;2023-04-24T14:05:52;15.50;99.90
4081;DHT22;2055;50.074;8.436;2023-04-24T14:08:18;14.80;99.90
4081;DHT22;2055;50.074;8.436;2023-04-24T14:10:43;13.90;99.90
4081;DHT22;2055;50.074;8.436;2023-04-24T14:13:09;13.70;99.90
4081;DHT22;2055;50.074;8.436;2023-04-24T14:15:35;14.50;99.90
4081;DHT22;2055;50.074;8.436;2023-04-24T14:18:01;15.30;99.90
4081;DHT22;2055;50.074;8.436;2023-04-24T14:20:27;15.30;99.90
4081;DHT22;2055;50.074;8.436;2023-04-24T14:22:53;14.50;99.90
4081;DHT22;2055;50.074;8.436;2023-04-24T14:25:18;14.00;99.90
4081;DHT22;2055;50.074;8.436;2023-04-24T14:27:44;13.40;99.90
4081;DHT22;2055;50.074;8.436;2023-04-24T14:30:10;13.10;99.90
4081;DHT22;2055;50.074;8.436;2023-04-24T14:32:38;12.80;99.90
4081;DHT22;2055;50.074;8.436;2023-04-24T14:35:05;13.00;99.90
4081;DHT22;2055;50.074;8.436;2023-04-24T14:37:31;13.10;99.90
4081;DHT22;2055;50.074;8.436;2023-04-24T14:39:56;13.20;99.90
4081;DHT22;2055;50.074;8.436;2023-04-24T14:42:22;13.30;99.90
4081;DHT22;2055;50.074;8.436;2023-04-24T14:44:47;13.50;99.90
4081;DHT22;2055;50.074;8.436;2023-04-24T14:47:13;13.60;99.90
4081;DHT22;2055;50.074;8.436;2023-04-24T14:49:38;13.80;99.90
4081;DHT22;2055;50.074;8.436;2023-04-24T14:52:04;13.70;99.90
4081;DHT22;2055;50.074;8.436;2023-04-24T14:54:30;13.80;99.90
4081;DHT22;2055;50.074;8.436;2023-04-24T14:56:56;13.50;99.90
4081;DHT22;2055;50.074;8.436;2023-04-24T14:59:24;13.60;99.90
4081;DHT22;2055;50.074;8.436;2023-04-24T15:01:50;13.50;99.90
4081;DHT22;2055;50.074;8.436;2023-04-24T15:04:16;13.30;99.90
4081;DHT22;2055;50.074;8.436;2023-04-24T15:06:42;13.00;99.90
4081;DHT22;2055;50.074;8.436;2023-04-24T15:09:07;13.20;99.90
4081;DHT22;2055;50.074;8.436;2023-04-24T15:11:33;13.10;99.90
4081;DHT22;2055;50.074;8.436;2023-04-24T15:13:59;13.30;99.90
4081;DHT22;2055;50.074;8.436;2023-04-24T15:16:24;13.20;99.90
4081;DHT22;2055;50.074;8.436;2023-04-24T15:18:50;13.10;99.90
4081;DHT22;2055;50.074;8.436;2023-04-24T15:21:16;13.10;99.90
4081;DHT22;2055;50.074;8.436;2023-04-24T15:23:41;13.00;99.90
4081;DHT22;2055;50.074;8.436;2023-04-24T15:26:07;12.90;99.90
4081;DHT22;2055;50.074;8.436;2023-04-24T15:28:32;12.80;99.90
4081;DHT22;2055;50.074;8.436;2023-04-24T15:30:58;12.80;99.90
4081;DHT22;2055;50.074;8.436;2023-04-24T15:33:23;12.80;99.90
4081;DHT22;2055;50.074;8.436;2023-04-24T15:35:49;12.80;99.90
4081;DHT22;2055;50.074;8.436;2023-04-24T15:38:15;12.80;99.90
4081;DHT22;2055;50.074;8.436;2023-04-24T15:40:41;12.90;99.90
4081;DHT22;2055;50.074;8.436;2023-04-24T15:43:06;12.90;99.90
4081;DHT22;2055;50.074;8.436;2023-04-24T15:45:32;12.90;99.90
4081;DHT22;2055;50.074;8.436;2023-04-24T15:47:58;12.90;99.90
4081;DHT22;2055;50.074;8.436;2023-04-24T15:50:24;13.20;99.90
4081;DHT22;2055;50.074;8.436;2023-04-24T15:52:49;13.30;99.90
4081;DHT22;2055;50.074;8.436;2023-04-24T15:55:15;13.40;99.90
4081;DHT22;2055;50.074;8.436;2023-04-24T15:57:41;13.10;99.90
4081;DHT22;2055;50.074;8.436;2023-04-24T16:00:08;12.90;99.90
4081;DHT22;2055;50.074;8.436;2023-04-24T16:02:37;12.80;99.90
4081;DHT22;2055;50.074;8.436;2023-04-24T16:05:03;12.70;99.90
4081;DHT22;2055;50.074;8.436;2023-04-24T16:07:30;12.70;99.90
4081;DHT22;2055;50.074;8.436;2023-04-24T16:09:56;12.70;99.90